Cap-de-la-Madeleine, Canada
Current Conditions -  °F | °C
As of 1:00 AM on Saturday 25 Oct 2014 (Local Time) from CYRQ Reporting Station
Overcast Overcast  
Wind Chill:   Ceiling: 18000
Heat Index:   Visibility: 9mi
Dew Point:   Wind: 3mph
Humidity: 93%   Direction: 60°ENE
Pressure: 29.75"   Gusts: NA
Location:  46.38°N, 72.55°W
Report Text: CYRQ 250500Z AUTO 06003KT 330V070 9SM OVC180 02/01 A2975 RMK SLP075
Loading
Personal Weather Stations






























Interactive Weather Map
Tropical Storm Tracking
New forecast layout! Learn more

10-Day Weather Forecast

Advertisements
Track Severe Weather on mobile